METAR Data
IDs: Format: Raw Decoded Include TAF

Data at: 0313 UTC 25 Feb 2021

CYBW 250300Z AUTO 28012KT 9SM CLR M04/M16 A3001 RMK SLP240